sensor_id;sensor_type;location;lat;lon;timestamp;P1;durP1;ratioP1;P2;durP2;ratioP2
36411;SDS011;22445;52.100;5.176;2024-03-07T00:02:09;59.67;;;30.08;;
36411;SDS011;22445;52.100;5.176;2024-03-07T00:04:35;59.80;;;28.55;;
36411;SDS011;22445;52.100;5.176;2024-03-07T00:07:04;67.32;;;30.98;;
36411;SDS011;22445;52.100;5.176;2024-03-07T00:09:33;63.75;;;29.92;;
36411;SDS011;22445;52.100;5.176;2024-03-07T00:12:03;65.93;;;30.73;;
36411;SDS011;22445;52.100;5.176;2024-03-07T00:14:32;65.00;;;30.38;;
36411;SDS011;22445;52.100;5.176;2024-03-07T00:17:00;69.47;;;29.50;;
36411;SDS011;22445;52.100;5.176;2024-03-07T00:19:26;64.22;;;29.45;;
36411;SDS011;22445;52.100;5.176;2024-03-07T00:21:52;65.40;;;28.45;;
36411;SDS011;22445;52.100;5.176;2024-03-07T00:24:19;58.33;;;27.67;;
36411;SDS011;22445;52.100;5.176;2024-03-07T00:26:45;63.08;;;29.58;;
36411;SDS011;22445;52.100;5.176;2024-03-07T00:29:11;63.05;;;30.23;;
36411;SDS011;22445;52.100;5.176;2024-03-07T00:31:36;61.13;;;30.67;;
36411;SDS011;22445;52.100;5.176;2024-03-07T00:34:05;56.90;;;29.40;;
36411;SDS011;22445;52.100;5.176;2024-03-07T00:36:31;62.40;;;30.05;;
36411;SDS011;22445;52.100;5.176;2024-03-07T00:38:58;60.70;;;27.02;;
36411;SDS011;22445;52.100;5.176;2024-03-07T00:41:25;62.60;;;29.35;;
36411;SDS011;22445;52.100;5.176;2024-03-07T00:43:51;56.35;;;27.10;;
36411;SDS011;22445;52.100;5.176;2024-03-07T00:46:17;64.65;;;28.23;;
36411;SDS011;22445;52.100;5.176;2024-03-07T00:48:43;61.00;;;26.17;;
36411;SDS011;22445;52.100;5.176;2024-03-07T00:51:10;53.13;;;27.10;;
36411;SDS011;22445;52.100;5.176;2024-03-07T00:53:39;72.13;;;29.13;;
36411;SDS011;22445;52.100;5.176;2024-03-07T00:56:05;68.57;;;28.25;;
36411;SDS011;22445;52.100;5.176;2024-03-07T00:58:30;65.93;;;28.65;;
36411;SDS011;22445;52.100;5.176;2024-03-07T01:00:56;60.78;;;30.58;;
36411;SDS011;22445;52.100;5.176;2024-03-07T01:03:22;65.82;;;30.58;;
36411;SDS011;22445;52.100;5.176;2024-03-07T01:05:49;69.13;;;29.73;;
36411;SDS011;22445;52.100;5.176;2024-03-07T01:08:15;60.97;;;28.58;;
36411;SDS011;22445;52.100;5.176;2024-03-07T01:10:40;78.47;;;32.38;;
36411;SDS011;22445;52.100;5.176;2024-03-07T01:13:06;68.85;;;30.52;;
36411;SDS011;22445;52.100;5.176;2024-03-07T01:15:34;69.00;;;29.60;;
36411;SDS011;22445;52.100;5.176;2024-03-07T01:17:59;67.97;;;30.23;;
36411;SDS011;22445;52.100;5.176;2024-03-07T01:20:25;74.00;;;31.33;;
36411;SDS011;22445;52.100;5.176;2024-03-07T01:22:51;69.28;;;32.22;;
36411;SDS011;22445;52.100;5.176;2024-03-07T01:25:17;63.90;;;29.95;;
36411;SDS011;22445;52.100;5.176;2024-03-07T01:27:43;68.43;;;30.85;;
36411;SDS011;22445;52.100;5.176;2024-03-07T01:30:09;53.10;;;28.45;;
36411;SDS011;22445;52.100;5.176;2024-03-07T01:32:35;62.08;;;29.83;;
36411;SDS011;22445;52.100;5.176;2024-03-07T01:35:01;64.47;;;30.10;;
36411;SDS011;22445;52.100;5.176;2024-03-07T01:37:27;62.88;;;28.00;;
36411;SDS011;22445;52.100;5.176;2024-03-07T01:39:54;65.88;;;29.25;;
36411;SDS011;22445;52.100;5.176;2024-03-07T01:42:19;65.68;;;28.95;;
36411;SDS011;22445;52.100;5.176;2024-03-07T01:44:45;63.17;;;28.58;;
36411;SDS011;22445;52.100;5.176;2024-03-07T01:47:11;61.15;;;27.55;;
36411;SDS011;22445;52.100;5.176;2024-03-07T01:49:36;64.15;;;29.33;;
36411;SDS011;22445;52.100;5.176;2024-03-07T01:52:04;71.03;;;28.50;;
36411;SDS011;22445;52.100;5.176;2024-03-07T01:54:33;63.95;;;28.15;;
36411;SDS011;22445;52.100;5.176;2024-03-07T01:56:59;72.63;;;29.63;;
36411;SDS011;22445;52.100;5.176;2024-03-07T01:59:24;66.10;;;30.73;;
36411;SDS011;22445;52.100;5.176;2024-03-07T02:01:52;68.95;;;30.75;;
36411;SDS011;22445;52.100;5.176;2024-03-07T02:04:17;71.28;;;29.52;;
36411;SDS011;22445;52.100;5.176;2024-03-07T02:06:43;69.43;;;31.17;;
36411;SDS011;22445;52.100;5.176;2024-03-07T02:09:08;67.00;;;29.52;;
36411;SDS011;22445;52.100;5.176;2024-03-07T02:11:34;68.43;;;30.33;;
36411;SDS011;22445;52.100;5.176;2024-03-07T02:14:00;72.95;;;31.95;;
36411;SDS011;22445;52.100;5.176;2024-03-07T02:16:26;77.40;;;30.60;;
36411;SDS011;22445;52.100;5.176;2024-03-07T02:18:52;81.78;;;30.85;;
36411;SDS011;22445;52.100;5.176;2024-03-07T02:21:17;69.13;;;31.05;;
36411;SDS011;22445;52.100;5.176;2024-03-07T02:23:43;81.30;;;32.15;;
36411;SDS011;22445;52.100;5.176;2024-03-07T02:26:09;75.07;;;33.25;;
36411;SDS011;22445;52.100;5.176;2024-03-07T02:28:34;87.40;;;34.22;;
36411;SDS011;22445;52.100;5.176;2024-03-07T02:31:01;87.13;;;36.00;;
36411;SDS011;22445;52.100;5.176;2024-03-07T02:33:27;85.13;;;36.72;;
36411;SDS011;22445;52.100;5.176;2024-03-07T02:35:53;83.85;;;35.30;;
36411;SDS011;22445;52.100;5.176;2024-03-07T02:38:18;82.05;;;32.90;;
36411;SDS011;22445;52.100;5.176;2024-03-07T02:40:44;96.65;;;38.03;;
36411;SDS011;22445;52.100;5.176;2024-03-07T02:43:11;85.80;;;39.35;;
36411;SDS011;22445;52.100;5.176;2024-03-07T02:45:37;93.13;;;37.53;;
36411;SDS011;22445;52.100;5.176;2024-03-07T02:48:03;96.45;;;38.90;;
36411;SDS011;22445;52.100;5.176;2024-03-07T02:50:32;86.50;;;38.15;;
36411;SDS011;22445;52.100;5.176;2024-03-07T02:52:58;102.32;;;40.15;;
36411;SDS011;22445;52.100;5.176;2024-03-07T02:55:23;91.93;;;38.80;;
36411;SDS011;22445;52.100;5.176;2024-03-07T02:57:49;102.40;;;40.47;;
36411;SDS011;22445;52.100;5.176;2024-03-07T03:00:15;94.20;;;39.40;;
36411;SDS011;22445;52.100;5.176;2024-03-07T03:02:45;91.57;;;40.30;;
36411;SDS011;22445;52.100;5.176;2024-03-07T03:05:17;97.30;;;39.90;;
36411;SDS011;22445;52.100;5.176;2024-03-07T03:07:43;102.03;;;38.28;;
36411;SDS011;22445;52.100;5.176;2024-03-07T03:10:19;98.15;;;39.70;;
36411;SDS011;22445;52.100;5.176;2024-03-07T03:13:06;93.57;;;37.15;;
36411;SDS011;22445;52.100;5.176;2024-03-07T03:15:31;86.57;;;33.97;;
36411;SDS011;22445;52.100;5.176;2024-03-07T03:17:57;86.57;;;37.60;;
36411;SDS011;22445;52.100;5.176;2024-03-07T03:20:26;86.18;;;33.75;;
36411;SDS011;22445;52.100;5.176;2024-03-07T03:22:59;82.85;;;34.67;;
36411;SDS011;22445;52.100;5.176;2024-03-07T03:25:25;81.50;;;35.45;;
36411;SDS011;22445;52.100;5.176;2024-03-07T03:27:51;79.38;;;37.38;;
36411;SDS011;22445;52.100;5.176;2024-03-07T03:30:17;76.75;;;34.80;;
36411;SDS011;22445;52.100;5.176;2024-03-07T03:32:44;76.78;;;33.20;;
36411;SDS011;22445;52.100;5.176;2024-03-07T03:35:11;69.03;;;32.97;;
36411;SDS011;22445;52.100;5.176;2024-03-07T03:37:41;81.03;;;36.55;;
36411;SDS011;22445;52.100;5.176;2024-03-07T03:40:08;68.00;;;31.40;;
36411;SDS011;22445;52.100;5.176;2024-03-07T03:42:38;74.78;;;31.70;;
36411;SDS011;22445;52.100;5.176;2024-03-07T03:45:04;73.28;;;30.95;;
36411;SDS011;22445;52.100;5.176;2024-03-07T03:47:33;80.93;;;32.47;;
36411;SDS011;22445;52.100;5.176;2024-03-07T03:49:59;71.47;;;31.98;;
36411;SDS011;22445;52.100;5.176;2024-03-07T03:52:24;65.40;;;31.30;;
36411;SDS011;22445;52.100;5.176;2024-03-07T03:54:51;73.63;;;31.27;;
36411;SDS011;22445;52.100;5.176;2024-03-07T03:57:17;76.75;;;31.13;;
36411;SDS011;22445;52.100;5.176;2024-03-07T03:59:43;71.22;;;31.80;;
36411;SDS011;22445;52.100;5.176;2024-03-07T04:02:10;64.78;;;31.80;;
36411;SDS011;22445;52.100;5.176;2024-03-07T04:04:38;63.28;;;30.30;;
36411;SDS011;22445;52.100;5.176;2024-03-07T04:07:05;72.32;;;32.60;;
36411;SDS011;22445;52.100;5.176;2024-03-07T04:09:30;75.70;;;32.42;;
36411;SDS011;22445;52.100;5.176;2024-03-07T04:11:56;73.32;;;29.92;;
36411;SDS011;22445;52.100;5.176;2024-03-07T04:14:23;72.30;;;33.45;;
36411;SDS011;22445;52.100;5.176;2024-03-07T04:16:48;75.53;;;31.10;;
36411;SDS011;22445;52.100;5.176;2024-03-07T04:19:15;77.47;;;32.00;;
36411;SDS011;22445;52.100;5.176;2024-03-07T04:21:40;76.85;;;32.58;;
36411;SDS011;22445;52.100;5.176;2024-03-07T04:24:07;73.05;;;33.03;;
36411;SDS011;22445;52.100;5.176;2024-03-07T04:26:32;70.03;;;30.50;;
36411;SDS011;22445;52.100;5.176;2024-03-07T04:28:58;77.95;;;31.33;;
36411;SDS011;22445;52.100;5.176;2024-03-07T04:31:23;62.95;;;30.40;;
36411;SDS011;22445;52.100;5.176;2024-03-07T04:33:49;65.30;;;30.27;;
36411;SDS011;22445;52.100;5.176;2024-03-07T04:36:16;70.20;;;30.77;;
36411;SDS011;22445;52.100;5.176;2024-03-07T04:38:42;83.47;;;33.33;;
36411;SDS011;22445;52.100;5.176;2024-03-07T04:41:11;77.35;;;32.45;;
36411;SDS011;22445;52.100;5.176;2024-03-07T04:43:36;68.80;;;30.98;;
36411;SDS011;22445;52.100;5.176;2024-03-07T04:46:02;72.20;;;32.78;;
36411;SDS011;22445;52.100;5.176;2024-03-07T04:48:32;72.95;;;32.47;;
36411;SDS011;22445;52.100;5.176;2024-03-07T04:50:57;72.75;;;31.15;;
36411;SDS011;22445;52.100;5.176;2024-03-07T04:53:23;67.45;;;30.77;;
36411;SDS011;22445;52.100;5.176;2024-03-07T04:55:49;80.78;;;32.70;;
36411;SDS011;22445;52.100;5.176;2024-03-07T04:58:15;74.82;;;32.03;;
36411;SDS011;22445;52.100;5.176;2024-03-07T05:00:40;76.68;;;32.47;;
36411;SDS011;22445;52.100;5.176;2024-03-07T05:03:06;75.68;;;34.22;;
36411;SDS011;22445;52.100;5.176;2024-03-07T05:05:31;80.35;;;33.92;;
36411;SDS011;22445;52.100;5.176;2024-03-07T05:07:57;74.30;;;35.13;;
36411;SDS011;22445;52.100;5.176;2024-03-07T05:10:23;80.60;;;32.60;;
36411;SDS011;22445;52.100;5.176;2024-03-07T05:12:49;79.32;;;34.90;;
36411;SDS011;22445;52.100;5.176;2024-03-07T05:15:15;77.70;;;32.60;;
36411;SDS011;22445;52.100;5.176;2024-03-07T05:17:42;88.47;;;35.15;;
36411;SDS011;22445;52.100;5.176;2024-03-07T05:20:08;81.63;;;34.13;;
36411;SDS011;22445;52.100;5.176;2024-03-07T05:22:37;85.85;;;35.33;;
36411;SDS011;22445;52.100;5.176;2024-03-07T05:25:15;86.03;;;34.13;;
36411;SDS011;22445;52.100;5.176;2024-03-07T05:27:41;82.43;;;33.47;;
36411;SDS011;22445;52.100;5.176;2024-03-07T05:30:08;80.15;;;35.25;;
36411;SDS011;22445;52.100;5.176;2024-03-07T05:32:36;90.65;;;35.33;;
36411;SDS011;22445;52.100;5.176;2024-03-07T05:35:02;85.80;;;33.97;;
36411;SDS011;22445;52.100;5.176;2024-03-07T05:37:28;76.95;;;34.60;;
36411;SDS011;22445;52.100;5.176;2024-03-07T05:39:54;86.38;;;35.92;;
36411;SDS011;22445;52.100;5.176;2024-03-07T05:42:20;86.88;;;33.13;;
36411;SDS011;22445;52.100;5.176;2024-03-07T05:44:45;83.03;;;34.60;;
36411;SDS011;22445;52.100;5.176;2024-03-07T05:47:11;90.65;;;36.67;;
36411;SDS011;22445;52.100;5.176;2024-03-07T05:49:41;79.35;;;35.10;;
36411;SDS011;22445;52.100;5.176;2024-03-07T05:52:07;72.13;;;32.45;;
36411;SDS011;22445;52.100;5.176;2024-03-07T05:54:32;96.47;;;35.53;;
36411;SDS011;22445;52.100;5.176;2024-03-07T05:56:58;83.40;;;34.80;;
36411;SDS011;22445;52.100;5.176;2024-03-07T05:59:25;79.30;;;32.60;;
36411;SDS011;22445;52.100;5.176;2024-03-07T06:01:53;80.20;;;33.95;;
36411;SDS011;22445;52.100;5.176;2024-03-07T06:04:19;83.22;;;34.33;;
36411;SDS011;22445;52.100;5.176;2024-03-07T06:06:46;81.22;;;33.95;;
36411;SDS011;22445;52.100;5.176;2024-03-07T06:09:13;73.97;;;32.58;;
36411;SDS011;22445;52.100;5.176;2024-03-07T06:11:39;79.53;;;34.88;;
36411;SDS011;22445;52.100;5.176;2024-03-07T06:14:08;83.35;;;34.40;;
36411;SDS011;22445;52.100;5.176;2024-03-07T06:16:37;71.22;;;32.10;;
36411;SDS011;22445;52.100;5.176;2024-03-07T06:19:04;77.13;;;32.22;;
36411;SDS011;22445;52.100;5.176;2024-03-07T06:21:32;77.75;;;33.95;;
36411;SDS011;22445;52.100;5.176;2024-03-07T06:23:59;76.35;;;36.17;;
36411;SDS011;22445;52.100;5.176;2024-03-07T06:26:29;64.20;;;30.73;;
36411;SDS011;22445;52.100;5.176;2024-03-07T06:29:15;78.45;;;32.30;;
36411;SDS011;22445;52.100;5.176;2024-03-07T06:31:41;82.78;;;34.85;;
36411;SDS011;22445;52.100;5.176;2024-03-07T06:34:07;78.45;;;33.83;;
36411;SDS011;22445;52.100;5.176;2024-03-07T06:36:36;71.28;;;31.77;;
36411;SDS011;22445;52.100;5.176;2024-03-07T06:39:02;74.82;;;34.83;;
36411;SDS011;22445;52.100;5.176;2024-03-07T06:41:31;72.75;;;33.17;;
36411;SDS011;22445;52.100;5.176;2024-03-07T06:43:59;74.30;;;34.72;;
36411;SDS011;22445;52.100;5.176;2024-03-07T06:46:25;77.20;;;32.60;;
36411;SDS011;22445;52.100;5.176;2024-03-07T06:48:51;80.30;;;35.38;;
36411;SDS011;22445;52.100;5.176;2024-03-07T06:51:17;79.82;;;35.50;;
36411;SDS011;22445;52.100;5.176;2024-03-07T06:53:43;85.22;;;36.70;;
36411;SDS011;22445;52.100;5.176;2024-03-07T06:56:09;94.20;;;38.35;;
36411;SDS011;22445;52.100;5.176;2024-03-07T06:58:36;84.95;;;36.53;;
36411;SDS011;22445;52.100;5.176;2024-03-07T07:01:01;87.30;;;36.08;;
36411;SDS011;22445;52.100;5.176;2024-03-07T07:03:32;95.32;;;38.10;;
36411;SDS011;22445;52.100;5.176;2024-03-07T07:05:58;102.70;;;41.03;;
36411;SDS011;22445;52.100;5.176;2024-03-07T07:08:24;103.15;;;40.65;;
36411;SDS011;22445;52.100;5.176;2024-03-07T07:10:49;102.15;;;41.70;;
36411;SDS011;22445;52.100;5.176;2024-03-07T07:13:15;100.25;;;41.45;;
36411;SDS011;22445;52.100;5.176;2024-03-07T07:15:41;105.93;;;42.22;;
36411;SDS011;22445;52.100;5.176;2024-03-07T07:18:08;106.20;;;41.53;;
36411;SDS011;22445;52.100;5.176;2024-03-07T07:20:35;107.05;;;41.40;;
36411;SDS011;22445;52.100;5.176;2024-03-07T07:23:01;114.93;;;42.78;;
36411;SDS011;22445;52.100;5.176;2024-03-07T07:25:28;109.32;;;45.35;;
36411;SDS011;22445;52.100;5.176;2024-03-07T07:27:54;107.50;;;43.55;;
36411;SDS011;22445;52.100;5.176;2024-03-07T07:30:21;127.80;;;47.53;;
36411;SDS011;22445;52.100;5.176;2024-03-07T07:32:48;132.77;;;49.55;;
36411;SDS011;22445;52.100;5.176;2024-03-07T07:35:14;135.20;;;50.92;;
36411;SDS011;22445;52.100;5.176;2024-03-07T07:37:44;157.27;;;54.95;;
36411;SDS011;22445;52.100;5.176;2024-03-07T07:40:11;168.60;;;57.35;;
36411;SDS011;22445;52.100;5.176;2024-03-07T07:42:42;182.38;;;62.08;;
36411;SDS011;22445;52.100;5.176;2024-03-07T07:45:09;199.35;;;68.30;;
36411;SDS011;22445;52.100;5.176;2024-03-07T07:47:38;190.98;;;67.82;;
36411;SDS011;22445;52.100;5.176;2024-03-07T07:50:07;200.60;;;70.22;;
36411;SDS011;22445;52.100;5.176;2024-03-07T07:52:39;169.43;;;64.10;;
36411;SDS011;22445;52.100;5.176;2024-03-07T07:55:07;155.48;;;63.67;;
36411;SDS011;22445;52.100;5.176;2024-03-07T07:57:43;116.32;;;53.22;;
36411;SDS011;22445;52.100;5.176;2024-03-07T08:00:12;92.22;;;46.67;;
36411;SDS011;22445;52.100;5.176;2024-03-07T08:02:50;64.57;;;39.05;;
36411;SDS011;22445;52.100;5.176;2024-03-07T08:05:36;45.92;;;31.13;;
36411;SDS011;22445;52.100;5.176;2024-03-07T08:08:04;37.25;;;24.73;;
36411;SDS011;22445;52.100;5.176;2024-03-07T08:10:31;33.45;;;23.02;;
36411;SDS011;22445;52.100;5.176;2024-03-07T08:12:58;34.03;;;21.10;;
36411;SDS011;22445;52.100;5.176;2024-03-07T08:15:27;29.95;;;19.92;;
36411;SDS011;22445;52.100;5.176;2024-03-07T08:17:54;26.83;;;18.95;;
36411;SDS011;22445;52.100;5.176;2024-03-07T08:20:20;26.52;;;20.02;;
36411;SDS011;22445;52.100;5.176;2024-03-07T08:22:48;26.75;;;18.30;;
36411;SDS011;22445;52.100;5.176;2024-03-07T08:25:18;24.85;;;18.13;;
36411;SDS011;22445;52.100;5.176;2024-03-07T08:27:48;28.67;;;18.83;;
36411;SDS011;22445;52.100;5.176;2024-03-07T08:30:16;24.75;;;17.20;;
36411;SDS011;22445;52.100;5.176;2024-03-07T08:32:45;24.90;;;16.73;;
36411;SDS011;22445;52.100;5.176;2024-03-07T08:35:15;23.70;;;16.15;;
36411;SDS011;22445;52.100;5.176;2024-03-07T08:37:42;23.63;;;16.35;;
36411;SDS011;22445;52.100;5.176;2024-03-07T08:40:09;21.00;;;16.13;;
36411;SDS011;22445;52.100;5.176;2024-03-07T08:42:36;21.52;;;15.57;;
36411;SDS011;22445;52.100;5.176;2024-03-07T08:45:03;20.55;;;15.60;;
36411;SDS011;22445;52.100;5.176;2024-03-07T08:47:33;21.13;;;15.00;;
36411;SDS011;22445;52.100;5.176;2024-03-07T08:49:59;21.00;;;15.38;;
36411;SDS011;22445;52.100;5.176;2024-03-07T08:52:25;19.65;;;13.75;;
36411;SDS011;22445;52.100;5.176;2024-03-07T08:54:52;18.95;;;14.30;;
36411;SDS011;22445;52.100;5.176;2024-03-07T08:57:18;16.92;;;13.20;;
36411;SDS011;22445;52.100;5.176;2024-03-07T08:59:44;18.05;;;13.27;;
36411;SDS011;22445;52.100;5.176;2024-03-07T09:02:11;18.13;;;12.90;;
36411;SDS011;22445;52.100;5.176;2024-03-07T09:04:37;19.23;;;13.98;;
36411;SDS011;22445;52.100;5.176;2024-03-07T09:07:06;19.48;;;13.55;;
36411;SDS011;22445;52.100;5.176;2024-03-07T09:09:32;16.60;;;13.43;;
36411;SDS011;22445;52.100;5.176;2024-03-07T09:11:59;16.10;;;12.50;;
36411;SDS011;22445;52.100;5.176;2024-03-07T09:14:29;15.88;;;12.48;;
36411;SDS011;22445;52.100;5.176;2024-03-07T09:16:55;12.82;;;11.20;;
36411;SDS011;22445;52.100;5.176;2024-03-07T09:19:22;18.42;;;13.45;;
36411;SDS011;22445;52.100;5.176;2024-03-07T09:21:52;14.82;;;11.93;;
36411;SDS011;22445;52.100;5.176;2024-03-07T09:24:18;13.65;;;11.05;;
36411;SDS011;22445;52.100;5.176;2024-03-07T09:26:47;13.98;;;11.60;;
36411;SDS011;22445;52.100;5.176;2024-03-07T09:29:17;14.52;;;11.75;;
36411;SDS011;22445;52.100;5.176;2024-03-07T09:31:44;12.77;;;10.50;;
36411;SDS011;22445;52.100;5.176;2024-03-07T09:34:10;12.50;;;10.63;;
36411;SDS011;22445;52.100;5.176;2024-03-07T09:36:38;13.50;;;9.63;;
36411;SDS011;22445;52.100;5.176;2024-03-07T09:39:06;10.82;;;9.68;;
36411;SDS011;22445;52.100;5.176;2024-03-07T09:41:33;10.90;;;9.77;;
36411;SDS011;22445;52.100;5.176;2024-03-07T09:43:59;11.45;;;9.68;;
36411;SDS011;22445;52.100;5.176;2024-03-07T09:46:25;13.75;;;10.68;;
36411;SDS011;22445;52.100;5.176;2024-03-07T09:48:50;10.73;;;9.63;;
36411;SDS011;22445;52.100;5.176;2024-03-07T09:51:19;12.70;;;10.27;;
36411;SDS011;22445;52.100;5.176;2024-03-07T09:53:45;13.13;;;10.00;;
36411;SDS011;22445;52.100;5.176;2024-03-07T09:56:12;13.40;;;10.55;;
36411;SDS011;22445;52.100;5.176;2024-03-07T09:58:39;12.63;;;11.05;;
36411;SDS011;22445;52.100;5.176;2024-03-07T10:01:05;12.65;;;10.88;;
36411;SDS011;22445;52.100;5.176;2024-03-07T10:03:35;12.90;;;11.20;;
36411;SDS011;22445;52.100;5.176;2024-03-07T10:06:01;12.98;;;10.95;;
36411;SDS011;22445;52.100;5.176;2024-03-07T10:08:28;14.32;;;10.02;;
36411;SDS011;22445;52.100;5.176;2024-03-07T10:10:55;13.38;;;10.80;;
36411;SDS011;22445;52.100;5.176;2024-03-07T10:13:21;12.20;;;10.90;;
36411;SDS011;22445;52.100;5.176;2024-03-07T10:15:48;14.82;;;11.10;;
36411;SDS011;22445;52.100;5.176;2024-03-07T10:18:15;13.40;;;10.55;;
36411;SDS011;22445;52.100;5.176;2024-03-07T10:20:42;12.32;;;10.68;;
36411;SDS011;22445;52.100;5.176;2024-03-07T10:23:08;12.60;;;10.52;;
36411;SDS011;22445;52.100;5.176;2024-03-07T10:25:35;12.75;;;10.35;;
36411;SDS011;22445;52.100;5.176;2024-03-07T10:28:02;13.70;;;10.75;;
36411;SDS011;22445;52.100;5.176;2024-03-07T10:30:29;13.45;;;10.45;;
36411;SDS011;22445;52.100;5.176;2024-03-07T10:32:56;14.73;;;11.13;;
36411;SDS011;22445;52.100;5.176;2024-03-07T10:35:23;14.05;;;10.73;;
36411;SDS011;22445;52.100;5.176;2024-03-07T10:37:52;13.02;;;10.57;;
36411;SDS011;22445;52.100;5.176;2024-03-07T10:40:19;12.10;;;10.88;;
36411;SDS011;22445;52.100;5.176;2024-03-07T10:42:47;12.60;;;10.90;;
36411;SDS011;22445;52.100;5.176;2024-03-07T10:45:17;12.68;;;10.77;;
36411;SDS011;22445;52.100;5.176;2024-03-07T10:47:54;14.63;;;11.18;;
36411;SDS011;22445;52.100;5.176;2024-03-07T10:50:24;13.18;;;10.82;;
36411;SDS011;22445;52.100;5.176;2024-03-07T11:01:47;14.98;;;10.48;;
36411;SDS011;22445;52.100;5.176;2024-03-07T11:04:37;11.82;;;9.82;;
36411;SDS011;22445;52.100;5.176;2024-03-07T11:07:03;13.45;;;10.38;;
36411;SDS011;22445;52.100;5.176;2024-03-07T11:09:29;13.38;;;11.00;;
36411;SDS011;22445;52.100;5.176;2024-03-07T11:11:58;13.20;;;10.63;;
36411;SDS011;22445;52.100;5.176;2024-03-07T11:14:25;12.35;;;10.85;;
36411;SDS011;22445;52.100;5.176;2024-03-07T11:16:51;12.38;;;10.20;;
36411;SDS011;22445;52.100;5.176;2024-03-07T11:19:18;13.82;;;11.00;;
36411;SDS011;22445;52.100;5.176;2024-03-07T11:22:02;13.00;;;10.60;;
36411;SDS011;22445;52.100;5.176;2024-03-07T11:24:41;13.43;;;10.25;;
36411;SDS011;22445;52.100;5.176;2024-03-07T11:27:10;13.73;;;10.43;;
36411;SDS011;22445;52.100;5.176;2024-03-07T11:32:28;12.23;;;9.63;;
36411;SDS011;22445;52.100;5.176;2024-03-07T11:34:54;14.00;;;10.18;;
36411;SDS011;22445;52.100;5.176;2024-03-07T11:37:37;12.40;;;10.43;;
36411;SDS011;22445;52.100;5.176;2024-03-07T11:40:11;12.18;;;9.88;;
36411;SDS011;22445;52.100;5.176;2024-03-07T11:42:57;13.98;;;10.30;;
36411;SDS011;22445;52.100;5.176;2024-03-07T11:45:26;11.55;;;10.15;;
36411;SDS011;22445;52.100;5.176;2024-03-07T11:47:54;13.13;;;10.23;;
36411;SDS011;22445;52.100;5.176;2024-03-07T11:50:40;12.63;;;11.13;;
36411;SDS011;22445;52.100;5.176;2024-03-07T11:53:06;15.32;;;11.25;;
36411;SDS011;22445;52.100;5.176;2024-03-07T11:55:33;12.85;;;10.75;;
36411;SDS011;22445;52.100;5.176;2024-03-07T12:00:51;14.35;;;11.30;;
36411;SDS011;22445;52.100;5.176;2024-03-07T12:03:18;14.55;;;11.25;;
36411;SDS011;22445;52.100;5.176;2024-03-07T12:05:46;15.13;;;9.85;;
36411;SDS011;22445;52.100;5.176;2024-03-07T12:08:13;13.48;;;10.35;;
36411;SDS011;22445;52.100;5.176;2024-03-07T12:10:40;13.80;;;11.05;;
36411;SDS011;22445;52.100;5.176;2024-03-07T12:13:10;12.30;;;10.68;;
36411;SDS011;22445;52.100;5.176;2024-03-07T12:15:41;16.25;;;11.80;;
36411;SDS011;22445;52.100;5.176;2024-03-07T12:18:07;15.65;;;12.05;;
36411;SDS011;22445;52.100;5.176;2024-03-07T12:20:37;17.08;;;12.32;;
36411;SDS011;22445;52.100;5.176;2024-03-07T12:23:04;14.90;;;11.80;;
36411;SDS011;22445;52.100;5.176;2024-03-07T12:25:34;13.55;;;10.30;;
36411;SDS011;22445;52.100;5.176;2024-03-07T12:28:05;13.38;;;10.38;;
36411;SDS011;22445;52.100;5.176;2024-03-07T12:33:30;12.27;;;10.40;;
36411;SDS011;22445;52.100;5.176;2024-03-07T12:36:01;14.02;;;10.63;;
36411;SDS011;22445;52.100;5.176;2024-03-07T12:38:31;14.23;;;10.35;;
36411;SDS011;22445;52.100;5.176;2024-03-07T12:41:02;12.40;;;10.18;;
36411;SDS011;22445;52.100;5.176;2024-03-07T12:43:32;11.73;;;9.95;;
36411;SDS011;22445;52.100;5.176;2024-03-07T12:45:58;14.20;;;10.48;;
36411;SDS011;22445;52.100;5.176;2024-03-07T12:48:24;11.30;;;9.70;;
36411;SDS011;22445;52.100;5.176;2024-03-07T12:50:50;12.50;;;10.50;;
36411;SDS011;22445;52.100;5.176;2024-03-07T12:53:23;13.85;;;10.48;;
36411;SDS011;22445;52.100;5.176;2024-03-07T12:55:51;11.10;;;9.45;;
36411;SDS011;22445;52.100;5.176;2024-03-07T12:58:20;13.38;;;10.80;;
36411;SDS011;22445;52.100;5.176;2024-03-07T13:00:50;11.32;;;9.82;;
36411;SDS011;22445;52.100;5.176;2024-03-07T13:03:25;12.88;;;11.23;;
36411;SDS011;22445;52.100;5.176;2024-03-07T13:05:58;14.43;;;11.35;;
36411;SDS011;22445;52.100;5.176;2024-03-07T13:08:27;12.32;;;11.02;;
36411;SDS011;22445;52.100;5.176;2024-03-07T13:10:55;11.50;;;9.60;;
36411;SDS011;22445;52.100;5.176;2024-03-07T13:13:20;10.93;;;9.85;;
36411;SDS011;22445;52.100;5.176;2024-03-07T13:15:46;10.82;;;9.73;;
36411;SDS011;22445;52.100;5.176;2024-03-07T13:18:12;12.20;;;10.45;;
36411;SDS011;22445;52.100;5.176;2024-03-07T13:20:39;11.90;;;10.27;;
36411;SDS011;22445;52.100;5.176;2024-03-07T13:23:08;10.80;;;9.70;;
36411;SDS011;22445;52.100;5.176;2024-03-07T13:25:35;10.77;;;9.07;;
36411;SDS011;22445;52.100;5.176;2024-03-07T13:28:02;11.15;;;10.00;;
36411;SDS011;22445;52.100;5.176;2024-03-07T13:30:33;11.15;;;9.25;;
36411;SDS011;22445;52.100;5.176;2024-03-07T13:33:01;11.30;;;9.90;;
36411;SDS011;22445;52.100;5.176;2024-03-07T13:35:28;11.57;;;10.20;;
36411;SDS011;22445;52.100;5.176;2024-03-07T13:37:54;13.18;;;10.75;;
36411;SDS011;22445;52.100;5.176;2024-03-07T13:40:21;14.45;;;11.13;;
36411;SDS011;22445;52.100;5.176;2024-03-07T13:45:35;12.15;;;9.98;;
36411;SDS011;22445;52.100;5.176;2024-03-07T13:48:05;11.23;;;9.85;;
36411;SDS011;22445;52.100;5.176;2024-03-07T13:50:32;10.65;;;9.55;;
36411;SDS011;22445;52.100;5.176;2024-03-07T13:52:59;11.27;;;10.10;;
36411;SDS011;22445;52.100;5.176;2024-03-07T14:23:34;11.73;;;9.05;;
36411;SDS011;22445;52.100;5.176;2024-03-07T14:32:14;11.05;;;9.88;;
36411;SDS011;22445;52.100;5.176;2024-03-07T14:34:48;11.45;;;9.85;;
36411;SDS011;22445;52.100;5.176;2024-03-07T14:37:28;12.30;;;10.15;;
36411;SDS011;22445;52.100;5.176;2024-03-07T14:40:06;12.90;;;10.77;;
36411;SDS011;22445;52.100;5.176;2024-03-07T14:42:39;12.50;;;10.85;;
36411;SDS011;22445;52.100;5.176;2024-03-07T14:45:07;12.77;;;10.63;;
36411;SDS011;22445;52.100;5.176;2024-03-07T14:47:38;14.25;;;10.65;;
36411;SDS011;22445;52.100;5.176;2024-03-07T14:50:04;16.00;;;11.10;;
36411;SDS011;22445;52.100;5.176;2024-03-07T14:52:30;12.98;;;10.13;;
36411;SDS011;22445;52.100;5.176;2024-03-07T14:54:56;15.18;;;10.00;;
36411;SDS011;22445;52.100;5.176;2024-03-07T14:57:22;14.10;;;10.70;;
36411;SDS011;22445;52.100;5.176;2024-03-07T14:59:48;12.02;;;9.82;;
36411;SDS011;22445;52.100;5.176;2024-03-07T15:02:15;12.50;;;9.73;;
36411;SDS011;22445;52.100;5.176;2024-03-07T15:04:41;14.27;;;10.18;;
36411;SDS011;22445;52.100;5.176;2024-03-07T15:07:08;12.73;;;9.50;;
36411;SDS011;22445;52.100;5.176;2024-03-07T15:09:35;14.95;;;9.80;;
36411;SDS011;22445;52.100;5.176;2024-03-07T15:12:01;13.60;;;9.25;;
36411;SDS011;22445;52.100;5.176;2024-03-07T15:14:27;13.20;;;10.27;;
36411;SDS011;22445;52.100;5.176;2024-03-07T15:16:53;13.65;;;10.30;;
36411;SDS011;22445;52.100;5.176;2024-03-07T15:19:18;14.90;;;10.27;;